Flight Track Log - Related Links

Times and Time Zones

All times are in EDT time to prevent confusion due to time zone crossing. See the UPS1122 flight status page for this flight to view local times or setup timezone preferences in your user account.

Time Position Orientation Groundspeed Altitude Reporting Facility
EDT Latitude Longitude Course Direction KTS MPH feet Rate Location/Type
Fri 03:42:30 AM 39.8611 -75.2725 251° West 165 190 1,200  Level FlightAware ADS-B
Fri 03:42:33 AM 39.8602 -75.2756 249° West 165 190 1,400 3,333 Climbing FlightAware ADS-B
Fri 03:42:39 AM 39.8582 -75.2811 245° Southwest 168 193 1,700 3,000 Climbing FlightAware ADS-B
Fri 03:42:43 AM 39.8569 -75.2841 241° Southwest 171 197 1,900 2,000 Climbing FlightAware ADS-B
Fri 03:42:48 AM 39.8546 -75.2891 239° Southwest 180 207 2,000 947 Climbing FlightAware ADS-B
Fri 03:43:02 AM 39.8479 -75.3027 237° Southwest 205 236 2,200 1,043 Climbing FlightAware ADS-B
Fri 03:43:11 AM 39.8430 -75.3129 238° Southwest 218 251 2,400 1,680 Climbing FlightAware ADS-B
Fri 03:43:27 AM 39.8345 -75.3310 239° Southwest 233 268 2,900 2,400 Climbing FlightAware ADS-B
Fri 03:43:36 AM 39.8293 -75.3417 238° Southwest 232 267 3,400 3,500 Climbing FlightAware ADS-B
Fri 03:43:39 AM 39.8274 -75.3450 233° Southwest 233 268 3,600 3,000 Climbing FlightAware ADS-B
Fri 03:43:42 AM 39.8251 -75.3484 229° Southwest 236 272 3,700 2,571 Climbing FlightAware ADS-B
Fri 03:43:46 AM 39.8218 -75.3521 221° Southwest 239 275 3,900 2,571 Climbing FlightAware ADS-B
Fri 03:43:49 AM 39.8190 -75.3545 213° Southwest 242 278 4,000 2,000 Climbing FlightAware ADS-B
Fri 03:43:52 AM 39.8159 -75.3565 206° Southwest 246 283 4,100 1,714 Climbing FlightAware ADS-B
Fri 03:43:56 AM 39.8116 -75.3584 199° South 250 288 4,200 750 Climbing FlightAware ADS-B
Fri 03:44:00 AM 39.8070 -75.3595 190° South 254 292 4,200 857 Level FlightAware ADS-B
Fri 03:44:03 AM 39.8030 -75.3597 182° South 257 296 4,300 2,000 Climbing FlightAware ADS-B
Fri 03:44:06 AM 39.7994 -75.3593 175° South 258 297 4,400 1,714 Climbing FlightAware ADS-B
Fri 03:44:10 AM 39.7954 -75.3582 168° South 257 296 4,500 2,571 Climbing FlightAware ADS-B
Fri 03:44:13 AM 39.7917 -75.3565 161° South 253 291 4,700 4,000 Climbing FlightAware ADS-B
Fri 03:44:16 AM 39.7884 -75.3543 153° Southeast 249 287 4,900 3,000 Climbing FlightAware ADS-B
Fri 03:44:19 AM 39.7855 -75.3519 148° Southeast 246 283 5,000 2,571 Climbing FlightAware ADS-B
Fri 03:44:23 AM 39.7826 -75.3486 139° Southeast 243 280 5,200 3,429 Climbing FlightAware ADS-B
Fri 03:44:26 AM 39.7798 -75.3444 131° Southeast 239 275 5,400 2,571 Climbing FlightAware ADS-B
Fri 03:44:30 AM 39.7780 -75.3408 123° Southeast 237 273 5,500 1,714 Climbing FlightAware ADS-B
Fri 03:44:33 AM 39.7763 -75.3365 117° Southeast 236 272 5,600 2,000 Climbing FlightAware ADS-B
Fri 03:44:36 AM 39.7752 -75.3322 108° East 235 270 5,700 3,000 Climbing FlightAware ADS-B
Fri 03:44:39 AM 39.7744 -75.3278 103° East 235 270 5,900 2,571 Climbing FlightAware ADS-B
Fri 03:44:43 AM 39.7738 -75.3219 98° East 234 269 6,000 1,800 Climbing FlightAware ADS-B
Fri 03:44:49 AM 39.7737 -75.3145 91° East 237 273 6,200 1,364 Climbing FlightAware ADS-B
Fri 03:45:05 AM 39.7745 -75.2906 87° East 262 302 6,500 1,548 Climbing FlightAware ADS-B
Fri 03:45:20 AM 39.7750 -75.2661 88° East 275 316 7,000 2,800 Climbing FlightAware ADS-B
Fri 03:45:35 AM 39.7757 -75.2412 88° East 272 313 7,900 2,897 Climbing FlightAware ADS-B
Fri 03:45:49 AM 39.7765 -75.2177 87° East 282 325 8,400 2,276 Climbing FlightAware ADS-B
Fri 03:46:04 AM 39.7772 -75.1908 88° East 292 336 9,000 2,600 Climbing FlightAware ADS-B
Fri 03:46:19 AM 39.7780 -75.1643 88° East 296 341 9,700 2,571 Climbing FlightAware ADS-B
Fri 03:46:46 AM 39.7794 -75.1157 88° East 307 353 10,800 1,627 Climbing FlightAware ADS-B
Fri 03:47:18 AM 39.7810 -75.0531 88° East 347 399 11,300 1,065 Climbing FlightAware ADS-B
Fri 03:47:48 AM 39.7829 -74.9866 88° East 377 434 11,900 1,377 Climbing FlightAware ADS-B
Fri 03:48:19 AM 39.7857 -74.9149 87° East 390 449 12,700 2,000 Climbing FlightAware ADS-B
Fri 03:48:42 AM 39.7884 -74.8631 86° East 389 448 13,700 2,264 Climbing FlightAware ADS-B
Fri 03:49:12 AM 39.7909 -74.7912 87° East 402 463 14,700 2,043 Climbing FlightAware ADS-B
Fri 03:49:29 AM 39.7933 -74.7488 86° East 410 472 15,300 2,087 Climbing FlightAware ADS-B
Fri 03:49:35 AM 39.7953 -74.7358 79° East 412 474 15,500 2,143 Climbing FlightAware ADS-B
Fri 03:49:43 AM 39.8009 -74.7156 70° East 415 478 15,800 2,143 Climbing FlightAware ADS-B
Fri 03:49:49 AM 39.8057 -74.7036 62° Northeast 416 479 16,000 2,143 Climbing FlightAware ADS-B
Fri 03:49:57 AM 39.8141 -74.6863 58° Northeast 416 479 16,300 2,118 Climbing FlightAware ADS-B
Fri 03:50:06 AM 39.8244 -74.6688 53° Northeast 418 481 16,600 1,895 Climbing FlightAware ADS-B
Fri 03:50:16 AM 39.8384 -74.6492 47° Northeast 421 484 16,900 1,636 Climbing FlightAware ADS-B
Fri 03:50:39 AM 39.8719 -74.6105 42° Northeast 429 494 17,500 1,800 Climbing FlightAware ADS-B
Fri 03:50:56 AM 39.8987 -74.5828 38° Northeast 430 495 18,100 1,857 Climbing FlightAware ADS-B
Fri 03:51:21 AM 39.9403 -74.5460 34° Northeast 435 501 18,800 1,831 Climbing FlightAware ADS-B
Fri 03:51:55 AM 39.9956 -74.4961 35° Northeast 437 503 19,900 1,875 Climbing FlightAware ADS-B
Fri 03:52:25 AM 40.0458 -74.4495 35° Northeast 441 507 20,800 1,100 Climbing FlightAware ADS-B
Fri 03:52:55 AM 40.0956 -74.4033 35° Northeast 436 502 21,000 197 Climbing FlightAware ADS-B
Fri 03:53:26 AM 40.1467 -74.3570 35° Northeast 433 498 21,000  Level FlightAware ADS-B
Fri 03:53:59 AM 40.2014 -74.3086 34° Northeast 433 498 21,000  Level FlightAware ADS-B
Fri 03:54:29 AM 40.2515 -74.2641 34° Northeast 433 498 21,000  Level FlightAware ADS-B
Fri 03:54:59 AM 40.3011 -74.2196 34° Northeast 434 499 21,000  Level FlightAware ADS-B
Fri 03:55:29 AM 40.3507 -74.1747 35° Northeast 434 499 21,000  Level FlightAware ADS-B
Fri 03:56:00 AM 40.4015 -74.1285 35° Northeast 434 499 21,000  Level FlightAware ADS-B
Fri 03:56:30 AM 40.4509 -74.0835 35° Northeast 433 498 21,000  Level FlightAware ADS-B
Fri 03:57:00 AM 40.5004 -74.0381 35° Northeast 432 497 21,000  Level FlightAware ADS-B
Fri 03:57:31 AM 40.5502 -73.9924 35° Northeast 432 497 21,000  Level FlightAware ADS-B
Fri 03:58:01 AM 40.5995 -73.9471 35° Northeast 431 496 21,000  Level FlightAware ADS-B
Fri 03:58:31 AM 40.6489 -73.9017 35° Northeast 431 496 21,000  Level FlightAware ADS-B
Fri 03:59:01 AM 40.6988 -73.8567 34° Northeast 431 496 21,000  Level FlightAware ADS-B
Fri 03:59:31 AM 40.7486 -73.8130 34° Northeast 432 497 21,000  Level FlightAware ADS-B
Fri 04:00:01 AM 40.7984 -73.7694 34° Northeast 432 497 21,000  Level FlightAware ADS-B
Fri 04:00:16 AM 40.8223 -73.7483 34° Northeast 432 497 21,000  Level FlightAware ADS-B
Fri 04:00:32 AM 40.8492 -73.7246 34° Northeast 433 498 21,000 -130 Level FlightAware ADS-B
Fri 04:01:02 AM 40.8994 -73.6802 34° Northeast 432 497 20,900 -1,475 Descending FlightAware ADS-B
Fri 04:01:33 AM 40.9510 -73.6345 34° Northeast 443 510 19,500 -2,459 Descending FlightAware ADS-B
Fri 04:02:03 AM 41.0027 -73.5885 34° Northeast 440 506 18,400 -2,129 Descending FlightAware ADS-B
Fri 04:02:35 AM 41.0550 -73.5420 34° Northeast 432 497 17,300 -2,095 Descending FlightAware ADS-B
Fri 04:03:06 AM 41.1065 -73.4960 34° Northeast 422 486 16,200 -2,129 Descending FlightAware ADS-B
Fri 04:03:37 AM 41.1558 -73.4520 34° Northeast 413 475 15,100 -2,066 Descending FlightAware ADS-B
Fri 04:04:07 AM 41.2038 -73.4093 34° Northeast 404 465 14,100 -1,931 Descending FlightAware ADS-B
Fri 04:05:04 AM 41.2892 -73.3322 34° Northeast 396 456 12,300 -1,167 Descending FlightAware ADS-B
Fri 04:06:31 AM 41.4010 -73.2310 34° Northeast 363 418 11,300 -496 Descending FlightAware ADS-B
Fri 04:07:05 AM 41.4410 -73.1950 34° Northeast 363 418 11,300 -231 Level FlightAware ADS-B
Fri 04:07:23 AM 41.4558 -73.1825 34° Northeast 290 334 11,100 -529 Descending Boston Center
Fri 04:07:39 AM 41.4747 -73.1689 28° Northeast 294 338 11,000 -1,475 Descending Boston Center
Fri 04:08:24 AM 41.5231 -73.1222 36° Northeast 282 325 9,600 -1,700 Descending Boston Center
Fri 04:08:39 AM 41.5336 -73.1167 22° Northeast 283 326 9,300 -1,700 Descending Boston Center
Fri 04:09:24 AM 41.5839 -73.0644 38° Northeast 276 318 7,900 -1,900 Descending Boston Center
Fri 04:09:39 AM 41.6025 -73.0508 29° Northeast 276 318 7,400 -1,672 Descending Boston Center
Fri 04:10:25 AM 41.6444 -73.0150 33° Northeast 256 295 6,200 -1,620 Descending Boston Center
Fri 04:11:19 AM 41.6947 -72.9683 35° Northeast 238 274 4,700 -1,703 Descending Boston Center
Fri 04:11:39 AM 41.7136 -72.9517 33° Northeast 247 284 4,100 -1,377 Descending Boston Center
Fri 04:12:20 AM 41.7469 -72.9214 34° Northeast 231 266 3,300 -1,000 Descending Boston Center
Fri 04:12:39 AM 41.7575 -72.9103 38° Northeast 230 265 3,100 -200 Descending Boston Center
Fri 04:13:20 AM 41.7931 -72.8772 35° Northeast 205 236 3,100 -100 Level Boston Center
Fri 04:13:39 AM 41.8078 -72.8633 35° Northeast 207 238 3,000 -98 Descending Boston Center
Fri 04:14:21 AM 41.8286 -72.8358 45° Northeast 173 199 3,000 -200 Level Boston Center
Fri 04:14:39 AM 41.8392 -72.8219 44° Northeast 177 204 2,800 -689 Descending Boston Center
Fri 04:15:22 AM 41.8581 -72.7969 45° Northeast 148 170 2,300 -800 Descending Boston Center
Fri 04:15:39 AM 41.8664 -72.7858 45° Northeast 151 174 2,000 -700 Descending Boston Center
Fri 04:16:22 AM 41.8853 -72.7636 41° Northeast 136 157 1,600 -700 Descending Boston Center
Fri 04:16:39 AM 41.8914 -72.7525 54° Northeast 132 152 1,300 -590 Descending Boston Center
Fri 04:17:23 AM 41.9039 -72.7358 45° Northeast 111 128 1,000 -600 Descending Boston Center
Fri 04:17:39 AM 41.9144 -72.7247 38° Northeast 117 135 700 -700 Descending Boston Center
Fri 04:18:23 AM 41.9311 -72.7025 45° Northeast 120 138 300 -300 Descending Boston Center
Fri 04:18:39 AM 41.9333 -72.6969 62° Northeast 112 129 400 375 Climbing Boston Center
Fri 04:20:00 AM 41.9333 -72.6833 29° Northeast  Level FlightAware Approximate
Fri 04:27:00 AM 41.9392 -72.6834 29° Northeast  Level Estimated
Fri 04:28:00 AM 41.9333 -72.6833 29° Northeast  Level FlightAware Approximate
Fri 04:29:00 AM 41.9392 -72.6834 29° Northeast  Level Estimated
Fri 04:30:00 AM 41.9333 -72.6833 29° Northeast  Level FlightAware Approximate
Fri 04:31:00 AM 41.9392 -72.6834 29° Northeast  Level Estimated

Login

Don't have an account? Register now (free) for customized features, flight alerts, and more!